This is the latest recevied weather packets stored in our database for station/object KC4JY. If no packets are shown the sender has not sent any weather packets the latest 1 day(s).
| Time | Temp. | Humidity | Pressure | Rain* | Wind** | Luminosity | Snow |
|---|---|---|---|---|---|---|---|
| 1777984210 | 16.67° C | 80% | 1018.1 hPa | 0 mm | 2.24 m/s, 253° | - | - |
| 1777983310 | 15.56° C | 82% | 1018.1 hPa | 0 mm | 2.24 m/s, 237° | - | - |
| 1777982454 | 15° C | 84% | 1018 hPa | 0 mm | 1.79 m/s, 234° | - | - |
| 1777981557 | 13.89° C | 86% | 1017.8 hPa | 0 mm | 1.79 m/s, 226° | - | - |
| 1777980646 | 13.33° C | 87% | 1017.7 hPa | 0 mm | 1.34 m/s, 239° | - | - |
| 1777979740 | 12.78° C | 88% | 1017.5 hPa | 0 mm | 0.89 m/s, 215° | - | - |
| 1777978837 | 12.22° C | 89% | 1017.3 hPa | 0 mm | 0.45 m/s, 205° | - | - |
| 1777977933 | 11.67° C | 88% | 1017.2 hPa | 0 mm | 0 m/s | - | - |
| 1777977036 | 11.67° C | 88% | 1017 hPa | 0 mm | 0.45 m/s, 210° | - | - |
| 1777976140 | 12.22° C | 88% | 1016.8 hPa | 0 mm | 0 m/s | - | - |
| 1777975211 | 12.22° C | 87% | 1016.6 hPa | 0 mm | 0.45 m/s, 216° | - | - |
| 1777974308 | 12.22° C | 86% | 1016.5 hPa | 0 mm | 0 m/s | - | - |
| 1777973459 | 12.22° C | 86% | 1016.5 hPa | 0 mm | 0.45 m/s, 216° | - | - |
| 1777972561 | 12.22° C | 86% | 1016.3 hPa | 0 mm | 0 m/s | - | - |
| 1777971632 | 12.22° C | 85% | 1016.3 hPa | 0 mm | 0 m/s | - | - |
| 1777970731 | 12.78° C | 84% | 1016.2 hPa | 0 mm | 0 m/s | - | - |
| 1777969818 | 12.78° C | 84% | 1016.1 hPa | 0 mm | 0 m/s | - | - |
| 1777968911 | 12.78° C | 84% | 1016 hPa | 0 mm | 0.45 m/s, 216° | - | - |
| 1777968053 | 12.78° C | 83% | 1016.1 hPa | 0 mm | 0 m/s | - | - |
| 1777967151 | 12.78° C | 82% | 1016.1 hPa | 0 mm | 0.45 m/s, 216° | - | - |
| 1777966234 | 13.33° C | 81% | 1015.9 hPa | 0 mm | 0 m/s | - | - |
| 1777965334 | 13.33° C | 81% | 1015.9 hPa | 0 mm | 0.45 m/s, 223° | - | - |
* Rain latest hour (hover to see other rain measurements)
** Current wind speed in m/s (hover to see current wind gust speed)